createdAt,value
2022-08-17T00:02:26.825Z,6.00
2022-08-17T00:04:54.263Z,5.47
2022-08-17T00:07:21.323Z,5.72
2022-08-17T00:09:48.275Z,6.07
2022-08-17T00:12:42.595Z,6.43
2022-08-17T00:15:02.297Z,6.32
2022-08-17T00:17:29.118Z,6.25
2022-08-17T00:19:55.672Z,5.90
2022-08-17T00:22:31.671Z,6.10
2022-08-17T00:25:04.038Z,5.68
2022-08-17T00:27:30.694Z,6.32
2022-08-17T00:29:57.372Z,5.38
2022-08-17T00:33:15.411Z,5.40
2022-08-17T00:35:12.873Z,5.70
2022-08-17T00:37:39.989Z,6.25
2022-08-17T00:40:08.884Z,5.43
2022-08-17T00:42:35.837Z,5.35
2022-08-17T00:45:04.798Z,6.00
2022-08-17T00:47:31.408Z,6.05
2022-08-17T00:49:58.071Z,5.97
2022-08-17T00:52:32.407Z,6.80
2022-08-17T00:54:59.659Z,5.32
2022-08-17T00:57:31.300Z,5.57
2022-08-17T01:00:03.784Z,5.45
2022-08-17T01:02:40.466Z,5.90
2022-08-17T01:05:23.666Z,6.03
2022-08-17T01:07:52.728Z,6.38
2022-08-17T01:10:57.124Z,6.05
2022-08-17T01:13:12.257Z,6.03
2022-08-17T01:15:46.076Z,6.05
2022-08-17T01:18:13.825Z,5.55
2022-08-17T01:20:52.126Z,6.60
2022-08-17T01:23:21.437Z,6.70
2022-08-17T01:25:52.305Z,7.13
2022-08-17T01:28:52.526Z,6.47
2022-08-17T01:31:08.966Z,6.47
2022-08-17T01:33:36.219Z,6.80
2022-08-17T01:36:04.215Z,5.70
2022-08-17T01:38:31.942Z,7.35
2022-08-17T01:41:06.917Z,6.80
2022-08-17T01:43:44.116Z,6.72
2022-08-17T01:46:21.080Z,6.63
2022-08-17T01:48:48.459Z,6.90
2022-08-17T01:51:16.092Z,7.13
2022-08-17T01:53:47.500Z,7.28
2022-08-17T01:56:18.273Z,6.25
2022-08-17T01:58:44.979Z,7.03
2022-08-17T02:01:14.813Z,6.43
2022-08-17T02:03:42.103Z,6.72
2022-08-17T02:06:28.048Z,6.88
2022-08-17T02:09:02.938Z,6.93
2022-08-17T02:11:32.874Z,6.72
2022-08-17T02:14:03.182Z,7.10
2022-08-17T02:16:36.843Z,7.03
2022-08-17T02:19:06.905Z,7.03
2022-08-17T02:21:34.314Z,7.68
2022-08-17T02:24:01.012Z,6.90
2022-08-17T02:26:28.185Z,6.28
2022-08-17T02:28:54.945Z,7.10
2022-08-17T02:31:21.547Z,6.93
2022-08-17T02:34:00.294Z,7.35
2022-08-17T02:36:31.117Z,7.00
2022-08-17T02:38:58.758Z,7.95
2022-08-17T02:41:25.483Z,7.55
2022-08-17T02:43:53.195Z,7.68
2022-08-17T02:46:19.867Z,7.72
2022-08-17T02:48:46.625Z,8.68
2022-08-17T02:51:13.170Z,7.88
2022-08-17T02:53:39.763Z,7.22
2022-08-17T02:56:06.813Z,7.60
2022-08-17T02:58:35.765Z,7.60
2022-08-17T03:01:05.913Z,8.57
2022-08-17T03:03:33.015Z,8.73
2022-08-17T03:05:59.882Z,8.52
2022-08-17T03:08:27.281Z,9.02
2022-08-17T03:10:53.802Z,9.18
2022-08-17T03:13:20.817Z,8.30
2022-08-17T03:15:48.474Z,8.93
2022-08-17T03:18:25.661Z,9.07
2022-08-17T03:20:59.357Z,8.07
2022-08-17T03:23:27.475Z,8.13
2022-08-17T03:25:54.589Z,8.60
2022-08-17T03:28:22.156Z,7.78
2022-08-17T03:30:48.996Z,8.38
2022-08-17T03:33:16.236Z,7.18
2022-08-17T03:35:43.045Z,8.15
2022-08-17T03:38:11.574Z,7.65
2022-08-17T03:40:58.203Z,7.28
2022-08-17T03:43:32.257Z,6.75
2022-08-17T03:46:28.487Z,7.65
2022-08-17T03:49:23.684Z,6.82
2022-08-17T03:52:08.922Z,7.95
2022-08-17T03:55:04.459Z,7.53
2022-08-17T03:57:31.481Z,6.97
2022-08-17T03:59:58.128Z,7.32
2022-08-17T04:02:29.025Z,7.28
2022-08-17T04:04:56.247Z,6.95
2022-08-17T04:07:25.000Z,6.88
2022-08-17T04:09:51.757Z,5.35
2022-08-17T04:12:20.572Z,7.03
2022-08-17T04:14:53.465Z,7.30
2022-08-17T04:17:27.477Z,7.60
2022-08-17T04:19:55.184Z,8.30
2022-08-17T04:22:33.070Z,8.32
2022-08-17T04:25:18.410Z,8.38
2022-08-17T04:27:45.005Z,8.77
2022-08-17T04:30:12.179Z,8.27
2022-08-17T04:33:09.707Z,7.13
2022-08-17T04:35:39.686Z,8.23
2022-08-17T04:38:08.327Z,7.15
2022-08-17T04:40:53.555Z,7.40
2022-08-17T04:43:24.477Z,7.68
2022-08-17T04:45:57.646Z,6.85
2022-08-17T04:48:29.801Z,7.38
2022-08-17T04:51:03.051Z,7.05
2022-08-17T04:53:29.654Z,7.60
2022-08-17T04:55:58.785Z,7.32
2022-08-17T04:58:25.475Z,7.80
2022-08-17T05:00:52.152Z,7.47
2022-08-17T05:03:18.975Z,7.80
2022-08-17T05:05:49.800Z,6.85
2022-08-17T05:08:19.329Z,7.07
2022-08-17T05:10:47.478Z,7.68
2022-08-17T05:13:26.050Z,7.78
2022-08-17T05:15:56.129Z,7.90
2022-08-17T05:18:24.527Z,7.28
2022-08-17T05:20:52.456Z,8.02
2022-08-17T05:23:21.595Z,7.05
2022-08-17T05:25:51.135Z,6.82
2022-08-17T05:28:23.528Z,7.05
2022-08-17T05:30:56.603Z,6.88
2022-08-17T05:33:29.163Z,6.90
2022-08-17T05:35:58.634Z,6.85
2022-08-17T05:38:27.497Z,6.35
2022-08-17T05:40:54.828Z,6.35
2022-08-17T05:43:30.299Z,6.22
2022-08-17T05:46:06.316Z,6.05
2022-08-17T05:48:44.695Z,6.70
2022-08-17T05:51:29.983Z,6.13
2022-08-17T05:54:05.703Z,5.55
2022-08-17T05:56:55.384Z,6.15
2022-08-17T06:00:08.144Z,5.30
2022-08-17T06:03:02.278Z,5.60
2022-08-17T06:05:50.738Z,7.03
2022-08-17T06:08:38.415Z,5.78
2022-08-17T06:11:33.391Z,6.32
2022-08-17T06:14:22.161Z,5.97
2022-08-17T06:16:56.390Z,6.07
2022-08-17T06:19:32.121Z,6.10
2022-08-17T06:22:00.300Z,6.85
2022-08-17T06:24:50.099Z,6.32
2022-08-17T06:27:21.936Z,6.70
2022-08-17T06:30:00.266Z,6.30
2022-08-17T06:32:26.917Z,6.45
2022-08-17T06:34:53.924Z,7.05
2022-08-17T06:37:53.987Z,6.82
2022-08-17T06:40:50.710Z,6.38
2022-08-17T06:43:32.640Z,6.38
2022-08-17T06:46:02.264Z,6.85
2022-08-17T06:48:54.023Z,6.43
2022-08-17T06:51:28.079Z,6.80
2022-08-17T06:54:06.579Z,6.70
2022-08-17T06:56:54.358Z,6.40
2022-08-17T06:59:53.026Z,6.90
2022-08-17T07:02:52.194Z,7.72
2022-08-17T07:05:20.582Z,7.07
2022-08-17T07:08:21.204Z,6.35
2022-08-17T07:10:52.927Z,7.63
2022-08-17T07:13:51.373Z,7.28
2022-08-17T07:16:47.102Z,7.28
2022-08-17T07:19:22.490Z,6.68
2022-08-17T07:22:26.310Z,7.70
2022-08-17T07:24:58.408Z,6.82
2022-08-17T07:27:27.667Z,6.50
2022-08-17T07:30:10.258Z,6.65
2022-08-17T07:32:45.323Z,6.60
2022-08-17T07:35:17.726Z,6.80
2022-08-17T07:38:07.191Z,11.77
2022-08-17T07:41:02.200Z,9.50
2022-08-17T07:43:52.289Z,6.88
2022-08-17T07:46:42.951Z,7.82
2022-08-17T07:49:09.472Z,7.73
2022-08-17T07:51:43.778Z,8.52
2022-08-17T07:54:16.621Z,8.48
2022-08-17T07:56:45.300Z,8.43
2022-08-17T07:59:18.179Z,6.97
2022-08-17T08:02:31.813Z,6.90
2022-08-17T08:05:12.917Z,8.40
2022-08-17T08:08:18.596Z,6.93
2022-08-17T08:10:59.252Z,7.15
2022-08-17T08:13:29.673Z,6.97
2022-08-17T08:16:30.133Z,6.97
2022-08-17T08:18:59.991Z,7.13
2022-08-17T08:21:49.716Z,7.00
2022-08-17T08:24:31.652Z,7.05
2022-08-17T08:27:08.285Z,7.10
2022-08-17T08:29:56.663Z,6.82
2022-08-17T08:32:48.053Z,7.30
2022-08-17T08:35:26.735Z,7.22
2022-08-17T08:38:01.989Z,6.78
2022-08-17T08:40:43.703Z,6.10
2022-08-17T08:43:29.238Z,7.03
2022-08-17T08:46:03.940Z,6.93
2022-08-17T08:49:02.670Z,7.35
2022-08-17T08:51:51.933Z,7.43
2022-08-17T08:54:34.451Z,6.55
2022-08-17T08:57:30.961Z,7.03
2022-08-17T09:00:07.110Z,6.57
2022-08-17T09:02:52.618Z,6.68
2022-08-17T09:05:48.419Z,6.40
2022-08-17T09:08:33.249Z,7.65
2022-08-17T09:11:24.801Z,7.07
2022-08-17T09:14:21.833Z,7.78
2022-08-17T09:17:02.881Z,6.55
2022-08-17T09:19:32.254Z,6.72
2022-08-17T09:22:07.623Z,6.47
2022-08-17T09:24:41.766Z,7.40
2022-08-17T09:27:13.894Z,7.80
2022-08-17T09:29:48.228Z,8.20
2022-08-17T09:32:17.848Z,9.13
2022-08-17T09:34:52.720Z,6.68
2022-08-17T09:37:30.286Z,6.57
2022-08-17T09:40:17.583Z,6.65
2022-08-17T09:43:26.631Z,6.25
2022-08-17T09:46:01.871Z,6.18
2022-08-17T09:48:59.502Z,7.25
2022-08-17T09:51:35.885Z,6.88
2022-08-17T09:54:34.822Z,6.57
2022-08-17T09:57:30.782Z,6.75
2022-08-17T10:00:16.109Z,7.28
2022-08-17T10:02:55.258Z,6.78
2022-08-17T10:05:49.207Z,6.38
2022-08-17T10:08:57.314Z,6.40
2022-08-17T10:11:52.174Z,6.13
2022-08-17T10:14:36.742Z,7.70
2022-08-17T10:20:27.928Z,6.47
2022-08-17T10:23:24.196Z,6.75
2022-08-17T10:26:13.284Z,5.85
2022-08-17T10:28:56.038Z,5.85
2022-08-17T10:31:39.778Z,6.40
2022-08-17T10:34:41.058Z,6.18
2022-08-17T10:37:30.147Z,7.10
2022-08-17T10:40:15.794Z,7.47
2022-08-17T10:42:48.562Z,7.05
2022-08-17T10:45:15.052Z,5.85
2022-08-17T10:48:06.197Z,5.88
2022-08-17T10:51:00.152Z,6.75
2022-08-17T10:53:32.916Z,6.53
2022-08-17T10:56:11.841Z,6.25
2022-08-17T10:58:54.006Z,6.03
2022-08-17T11:01:33.056Z,6.60
2022-08-17T11:04:25.166Z,5.57
2022-08-17T11:07:02.059Z,6.88
2022-08-17T11:09:59.705Z,6.07
2022-08-17T11:12:29.352Z,5.72
2022-08-17T11:14:59.554Z,6.20
2022-08-17T11:17:45.809Z,5.65
2022-08-17T11:20:24.684Z,6.38
2022-08-17T11:23:03.468Z,5.35
2022-08-17T11:25:33.085Z,5.53
2022-08-17T11:28:13.935Z,5.20
2022-08-17T11:30:51.041Z,5.45
2022-08-17T11:33:29.981Z,6.63
2022-08-17T11:36:36.532Z,5.25
2022-08-17T11:39:30.718Z,6.28
2022-08-17T11:42:06.495Z,6.00
2022-08-17T11:44:42.230Z,6.03
2022-08-17T11:47:57.003Z,6.25
2022-08-17T11:50:56.584Z,5.72
2022-08-17T11:53:38.063Z,6.20
2022-08-17T11:56:04.683Z,6.13
2022-08-17T11:58:31.260Z,6.28
2022-08-17T12:01:00.835Z,5.95
2022-08-17T12:03:33.673Z,6.78
2022-08-17T12:06:31.052Z,6.20
2022-08-17T12:09:10.326Z,7.07
2022-08-17T12:12:11.381Z,7.18
2022-08-17T12:15:08.353Z,7.15
2022-08-17T12:17:41.442Z,6.03
2022-08-17T12:20:24.601Z,6.90
2022-08-17T12:23:04.143Z,6.80
2022-08-17T12:25:56.338Z,6.60
2022-08-17T12:28:30.330Z,7.85
2022-08-17T12:31:06.847Z,6.50
2022-08-17T12:33:36.901Z,6.65
2022-08-17T12:36:08.549Z,6.55
2022-08-17T12:38:38.076Z,6.60
2022-08-17T12:41:28.934Z,6.57
2022-08-17T12:44:03.697Z,5.85
2022-08-17T12:46:35.838Z,7.20
2022-08-17T12:49:32.921Z,6.72
2022-08-17T12:52:05.848Z,6.55
2022-08-17T12:54:45.023Z,6.25
2022-08-17T12:57:15.750Z,7.25
2022-08-17T12:59:46.759Z,7.20
2022-08-17T13:02:31.756Z,6.93
2022-08-17T13:05:01.030Z,7.15
2022-08-17T13:07:42.516Z,7.15
2022-08-17T13:10:17.491Z,6.43
2022-08-17T13:12:44.111Z,6.85
2022-08-17T13:15:21.314Z,7.07
2022-08-17T13:17:57.398Z,8.30
2022-08-17T13:20:24.084Z,6.72
2022-08-17T13:23:03.178Z,7.55
2022-08-17T13:25:30.841Z,7.88
2022-08-17T13:27:57.741Z,7.65
2022-08-17T13:30:33.278Z,7.53
2022-08-17T13:33:04.712Z,6.55
2022-08-17T13:35:47.135Z,7.88
2022-08-17T13:38:39.469Z,7.35
2022-08-17T13:41:07.568Z,7.57
2022-08-17T13:43:44.755Z,7.65
2022-08-17T13:46:25.113Z,7.25
2022-08-17T13:49:05.526Z,6.95
2022-08-17T13:51:44.320Z,6.70
2022-08-17T13:54:50.833Z,6.80
2022-08-17T13:57:23.522Z,7.43
2022-08-17T14:02:27.595Z,7.63
2022-08-17T14:04:56.675Z,6.68
2022-08-17T14:07:28.965Z,6.95
2022-08-17T14:09:59.458Z,7.25
2022-08-17T14:12:30.522Z,7.25
2022-08-17T14:14:58.906Z,6.97
2022-08-17T14:17:28.948Z,7.10
2022-08-17T14:19:56.587Z,7.25
2022-08-17T14:22:36.958Z,6.75
2022-08-17T14:25:05.875Z,7.60
2022-08-17T14:27:47.113Z,7.53
2022-08-17T14:30:22.088Z,7.03
2022-08-17T14:32:49.596Z,7.18
2022-08-17T14:35:16.328Z,7.90
2022-08-17T14:37:45.696Z,7.18
2022-08-17T14:40:14.406Z,6.78
2022-08-17T14:42:44.268Z,6.97
2022-08-17T14:45:29.719Z,6.80
2022-08-17T14:48:01.780Z,7.65
2022-08-17T14:50:35.593Z,7.63
2022-08-17T14:53:03.931Z,6.70
2022-08-17T14:55:31.178Z,6.63
2022-08-17T14:57:58.182Z,6.53
2022-08-17T15:00:25.432Z,7.57
2022-08-17T15:02:58.470Z,7.30
2022-08-17T15:05:31.462Z,6.90
2022-08-17T15:07:58.955Z,7.00
2022-08-17T15:10:26.050Z,7.65
2022-08-17T15:12:52.909Z,6.65
2022-08-17T15:15:22.006Z,6.82
2022-08-17T15:17:49.103Z,6.80
2022-08-17T15:20:19.593Z,7.55
2022-08-17T15:22:49.714Z,7.22
2022-08-17T15:25:19.155Z,7.32
2022-08-17T15:27:46.188Z,7.10
2022-08-17T15:30:13.251Z,7.53
2022-08-17T15:32:45.832Z,7.03
2022-08-17T15:35:28.076Z,7.18
2022-08-17T15:38:06.485Z,6.85
2022-08-17T15:40:38.930Z,6.97
2022-08-17T15:43:08.009Z,6.80
2022-08-17T15:45:35.318Z,6.93
2022-08-17T15:48:02.375Z,6.30
2022-08-17T15:50:29.073Z,6.57
2022-08-17T15:52:58.353Z,6.45
2022-08-17T15:55:27.278Z,5.63
2022-08-17T15:57:54.250Z,6.70
2022-08-17T16:00:24.139Z,7.00
2022-08-17T16:03:47.027Z,6.72
2022-08-17T16:05:37.602Z,6.70
2022-08-17T16:08:07.308Z,6.50
2022-08-17T16:10:35.779Z,6.85
2022-08-17T16:13:04.189Z,7.22
2022-08-17T16:15:31.901Z,6.20
2022-08-17T16:17:59.358Z,6.60
2022-08-17T16:20:26.053Z,7.03
2022-08-17T16:22:54.466Z,7.18
2022-08-17T16:25:38.353Z,6.57
2022-08-17T16:28:14.248Z,6.38
2022-08-17T16:30:41.407Z,6.28
2022-08-17T16:33:11.344Z,7.00
2022-08-17T16:35:38.461Z,6.60
2022-08-17T16:38:05.454Z,7.13
2022-08-17T16:40:35.689Z,7.13
2022-08-17T16:43:04.398Z,7.22
2022-08-17T16:45:40.563Z,7.13
2022-08-17T16:48:08.005Z,9.15
2022-08-17T17:16:36.095Z,9.65
2022-08-17T17:19:38.293Z,9.63
2022-08-17T17:22:19.585Z,10.18
2022-08-17T17:25:09.878Z,10.25
2022-08-17T17:27:58.928Z,9.80
2022-08-17T17:30:43.609Z,9.82
2022-08-17T17:33:19.150Z,10.18
2022-08-17T17:36:06.998Z,9.35
2022-08-17T17:38:33.527Z,10.75
2022-08-17T17:41:15.689Z,10.68
2022-08-17T17:43:43.079Z,12.23
2022-08-17T17:46:27.292Z,11.45
2022-08-17T17:48:59.561Z,6.72
2022-08-17T17:52:08.550Z,6.40
2022-08-17T17:55:07.081Z,7.28
2022-08-17T17:58:09.591Z,7.55
2022-08-17T18:01:04.324Z,8.07
2022-08-17T18:03:52.687Z,7.07
2022-08-17T18:06:28.231Z,7.18
2022-08-17T18:09:33.868Z,5.70
2022-08-17T18:12:16.051Z,5.85
2022-08-17T18:14:54.776Z,5.30
2022-08-17T18:17:21.422Z,4.65
2022-08-17T18:19:48.319Z,4.55
2022-08-17T18:22:20.874Z,4.25
2022-08-17T18:24:57.242Z,3.83
2022-08-17T18:27:32.304Z,3.95
2022-08-17T18:30:19.469Z,3.88
2022-08-17T18:32:46.678Z,4.10
2022-08-17T18:35:16.070Z,4.05
2022-08-17T18:37:48.162Z,4.53
2022-08-17T18:40:18.380Z,4.82
2022-08-17T18:42:57.178Z,5.03
2022-08-17T18:45:35.224Z,5.20
2022-08-17T18:48:05.713Z,4.65
2022-08-17T18:50:41.550Z,4.40
2022-08-17T18:53:34.065Z,4.20
2022-08-17T18:56:34.184Z,4.18
2022-08-17T18:59:00.968Z,4.03
2022-08-17T19:01:52.450Z,5.35
2022-08-17T19:04:34.135Z,4.55
2022-08-17T19:07:16.702Z,4.50
2022-08-17T19:09:52.893Z,4.22
2022-08-17T19:12:34.824Z,4.35
2022-08-17T19:15:02.933Z,4.07
2022-08-17T19:17:44.446Z,3.67
2022-08-17T19:20:34.318Z,4.18
2022-08-17T19:23:36.630Z,4.00
2022-08-17T19:26:07.312Z,3.63
2022-08-17T19:29:06.907Z,3.37
2022-08-17T19:31:33.622Z,3.30
2022-08-17T19:34:01.802Z,3.03
2022-08-17T19:37:00.973Z,3.40
2022-08-17T19:39:40.368Z,3.03
2022-08-17T19:42:39.211Z,3.53
2022-08-17T19:45:12.301Z,3.25
2022-08-17T19:47:55.158Z,3.38
2022-08-17T19:50:38.397Z,3.35
2022-08-17T19:53:54.261Z,2.85
2022-08-17T19:56:35.180Z,3.25
2022-08-17T19:59:52.990Z,3.53
2022-08-17T20:02:33.718Z,2.75
2022-08-17T20:05:07.893Z,3.80
2022-08-17T20:07:44.475Z,3.22
2022-08-17T20:10:48.010Z,3.45
2022-08-17T20:13:38.826Z,3.37
2022-08-17T20:16:06.000Z,3.40
2022-08-17T20:18:47.696Z,4.22
2022-08-17T20:21:39.177Z,3.85
2022-08-17T20:24:21.265Z,4.70
2022-08-17T20:26:58.655Z,4.85
2022-08-17T20:29:37.845Z,5.90
2022-08-17T20:34:47.966Z,4.30
2022-08-17T20:37:14.615Z,4.18
2022-08-17T20:39:44.641Z,4.07
2022-08-17T20:42:21.810Z,4.00
2022-08-17T20:44:57.652Z,3.90
2022-08-17T20:48:15.130Z,4.07
2022-08-17T20:50:41.786Z,3.47
2022-08-17T20:53:32.263Z,3.30
2022-08-17T20:55:58.982Z,3.67
2022-08-17T20:58:31.114Z,3.65
2022-08-17T21:00:58.719Z,3.90
2022-08-17T21:03:26.799Z,3.90
2022-08-17T21:05:59.830Z,3.72
2022-08-17T21:08:35.554Z,3.97
2022-08-17T21:11:56.882Z,4.28
2022-08-17T21:14:28.680Z,3.75
2022-08-17T21:17:18.473Z,3.35
2022-08-17T21:20:00.600Z,4.43
2022-08-17T21:22:47.078Z,3.78
2022-08-17T21:25:39.418Z,3.70
2022-08-17T21:28:10.029Z,4.53
2022-08-17T21:30:39.259Z,3.95
2022-08-17T21:33:27.523Z,3.85
2022-08-17T21:36:17.196Z,3.38
2022-08-17T21:38:57.458Z,3.88
2022-08-17T21:41:33.795Z,4.07
2022-08-17T21:44:12.236Z,4.30
2022-08-17T21:46:42.978Z,3.47
2022-08-17T21:49:19.399Z,3.78
2022-08-17T21:51:53.769Z,3.67
2022-08-17T21:54:34.949Z,4.20
2022-08-17T21:57:04.629Z,4.25
2022-08-17T21:59:37.700Z,3.78
2022-08-17T22:02:16.804Z,3.90
2022-08-17T22:04:55.009Z,3.70
2022-08-17T22:07:53.084Z,3.60
2022-08-17T22:10:35.298Z,4.00
2022-08-17T22:13:17.343Z,3.22
2022-08-17T22:16:15.390Z,3.90
2022-08-17T22:18:55.749Z,3.60
2022-08-17T22:21:22.621Z,3.60
2022-08-17T22:24:05.069Z,3.83
2022-08-17T22:26:59.276Z,3.90
2022-08-17T22:30:00.325Z,4.07
2022-08-17T22:32:47.714Z,3.95
2022-08-17T22:35:36.032Z,3.88
2022-08-17T22:38:18.718Z,3.58
2022-08-17T22:40:56.460Z,3.25
2022-08-17T22:43:26.297Z,3.92
2022-08-17T22:45:59.295Z,3.90
2022-08-17T22:48:28.480Z,3.70
2022-08-17T22:51:12.588Z,4.05
2022-08-17T22:54:06.988Z,3.70
2022-08-17T22:56:54.018Z,3.58
2022-08-17T22:59:54.486Z,3.67
2022-08-17T23:02:26.052Z,4.57
2022-08-17T23:04:55.698Z,3.67
2022-08-17T23:07:22.349Z,4.13
2022-08-17T23:09:51.118Z,3.97
2022-08-17T23:12:24.059Z,4.03
2022-08-17T23:14:58.441Z,4.50
2022-08-17T23:17:25.188Z,4.60
2022-08-17T23:19:51.850Z,4.03
2022-08-17T23:22:18.517Z,4.07
2022-08-17T23:24:49.030Z,4.90
2022-08-17T23:27:16.268Z,4.20
2022-08-17T23:29:43.099Z,4.47
2022-08-17T23:32:14.753Z,4.35
2022-08-17T23:34:43.328Z,3.72
2022-08-17T23:37:11.564Z,3.90
2022-08-17T23:39:39.569Z,3.53
2022-08-17T23:42:08.436Z,3.95
2022-08-17T23:44:37.912Z,4.55
2022-08-17T23:47:05.713Z,4.47
2022-08-17T23:49:32.387Z,3.60
2022-08-17T23:52:01.842Z,3.80
2022-08-17T23:54:35.688Z,4.53
2022-08-17T23:57:04.786Z,4.75
2022-08-17T23:59:33.003Z,4.80
